Time;durP1;ratioP1;P1;durP2;ratioP2;P2;SDS_P1;SDS_P2;PMS_P1;PMS_P2;Temp;Humidity;BMP_temperature;BMP_pressure;BME280_temperature;BME280_humidity;BME280_pressure;Samples;Min_cycle;Max_cycle;Signal;HPM_P1;HPM_P2
2023/09/23 00:00:24;;;;;;;;;;;21.30;47.50;;;;;;1560381;74;1919;-67
2023/09/23 00:02:24;;;;;;;;;;;21.40;47.60;;;;;;1558939;74;1638;-67
2023/09/23 00:04:26;;;;;;;;;;;21.30;47.60;;;;;;1559370;74;716;-67
2023/09/23 00:06:28;;;;;;;;;;;21.30;47.50;;;;;;1562701;74;741;-67
2023/09/23 00:08:30;;;;;;;;;;;21.30;47.70;;;;;;1559300;74;1184;-67
2023/09/23 00:10:34;;;;;;;;;;;21.30;47.60;;;;;;1562465;74;734;-66
2023/09/23 00:12:36;;;;;;;;;;;21.40;47.70;;;;;;1563442;74;1685;-67
2023/09/23 00:14:37;;;;;;;;;;;21.30;47.60;;;;;;1567184;74;611;-67
2023/09/23 00:16:39;;;;;;;;;;;21.30;47.70;;;;;;1567699;74;726;-67
2023/09/23 00:18:43;;;;;;;;;;;21.40;47.70;;;;;;1563199;74;1138;-67
2023/09/23 00:20:47;;;;;;;;;;;21.30;47.70;;;;;;1564258;74;1912;-67
2023/09/23 00:22:54;;;;;;;;;;;21.40;47.60;;;;;;1557941;74;747;-67
2023/09/23 00:24:54;;;;;;;;;;;21.40;47.70;;;;;;1564796;74;1681;-67
2023/09/23 00:26:59;;;;;;;;;;;21.30;47.60;;;;;;1565801;74;676;-67
2023/09/23 00:28:59;;;;;;;;;;;21.30;47.60;;;;;;1561441;74;1673;-66
2023/09/23 00:31:11;;;;;;;;;;;21.30;47.60;;;;;;1562831;74;708;-66
2023/09/23 00:33:14;;;;;;;;;;;21.30;47.60;;;;;;1572199;74;1628;-67
2023/09/23 00:35:15;;;;;;;;;;;21.30;47.70;;;;;;1565276;74;1728;-67
2023/09/23 00:37:17;;;;;;;;;;;21.30;47.70;;;;;;1566657;74;731;-67
2023/09/23 00:39:19;;;;;;;;;;;21.30;47.60;;;;;;1566641;74;1178;-67
2023/09/23 00:41:20;;;;;;;;;;;21.30;47.70;;;;;;1565188;74;1949;-67
2023/09/23 00:43:23;;;;;;;;;;;21.30;47.80;;;;;;1564240;74;758;-68
2023/09/23 00:45:25;;;;;;;;;;;21.30;47.70;;;;;;1566287;74;720;-67
2023/09/23 00:47:27;;;;;;;;;;;21.20;47.60;;;;;;1562588;74;755;-67
2023/09/23 00:49:28;;;;;;;;;;;21.30;47.70;;;;;;1561540;74;1092;-68
2023/09/23 00:51:30;;;;;;;;;;;21.50;47.90;;;;;;1564958;74;732;-67
2023/09/23 00:53:34;;;;;;;;;;;21.30;47.80;;;;;;1556076;74;714;-66
2023/09/23 00:55:42;;;;;;;;;;;21.30;47.80;;;;;;1564983;74;1661;-67
2023/09/23 00:57:41;;;;;;;;;;;21.30;47.80;;;;;;1559004;74;1631;-67
2023/09/23 00:59:43;;;;;;;;;;;21.30;47.80;;;;;;1568051;74;771;-67
2023/09/23 01:01:47;;;;;;;;;;;21.60;48.00;;;;;;1562698;74;2010;-64
2023/09/23 01:03:48;;;;;;;;;;;21.30;47.80;;;;;;1559153;74;1687;-68
2023/09/23 01:06:21;;;;;;;;;;;21.30;47.80;;;;;;1559696;74;712;-67
2023/09/23 01:08:22;;;;;;;;;;;21.30;47.70;;;;;;1555974;74;1521;-66
2023/09/23 01:10:24;;;;;;;;;;;21.30;47.90;;;;;;1554635;74;622;-66
2023/09/23 01:12:26;;;;;;;;;;;21.40;47.80;;;;;;1566453;74;727;-66
2023/09/23 01:14:28;;;;;;;;;;;21.30;47.80;;;;;;1564273;74;734;-67
2023/09/23 01:16:30;;;;;;;;;;;21.30;47.90;;;;;;1561057;74;682;-67
2023/09/23 01:18:32;;;;;;;;;;;21.30;47.80;;;;;;1568019;74;1137;-66
2023/09/23 01:20:36;;;;;;;;;;;21.30;48.00;;;;;;1566585;74;728;-68
2023/09/23 01:22:37;;;;;;;;;;;21.30;47.90;;;;;;1558366;75;1634;-67
2023/09/23 01:24:40;;;;;;;;;;;21.30;47.90;;;;;;1559190;74;802;-64
2023/09/23 01:26:43;;;;;;;;;;;21.30;48.00;;;;;;1563402;74;679;-67
2023/09/23 01:28:47;;;;;;;;;;;21.30;47.90;;;;;;1563663;74;1140;-67
2023/09/23 01:30:48;;;;;;;;;;;21.30;48.00;;;;;;1560079;74;1660;-68
2023/09/23 01:32:51;;;;;;;;;;;21.30;47.90;;;;;;1564794;74;726;-66
2023/09/23 01:34:54;;;;;;;;;;;21.30;47.80;;;;;;1566830;74;747;-65
2023/09/23 01:36:56;;;;;;;;;;;21.30;47.80;;;;;;1560176;74;604;-68
2023/09/23 01:38:59;;;;;;;;;;;21.30;47.90;;;;;;1570479;74;1231;-68
2023/09/23 01:41:02;;;;;;;;;;;21.30;47.70;;;;;;1566587;74;1916;-66
2023/09/23 01:43:04;;;;;;;;;;;21.30;47.90;;;;;;1558565;74;744;-67
2023/09/23 01:45:06;;;;;;;;;;;21.30;47.80;;;;;;1562683;74;582;-67
2023/09/23 01:47:08;;;;;;;;;;;21.30;47.70;;;;;;1561260;74;766;-67
2023/09/23 01:49:10;;;;;;;;;;;21.30;47.60;;;;;;1563527;74;1139;-67
2023/09/23 01:51:16;;;;;;;;;;;21.30;47.70;;;;;;1567253;74;1371;-68
2023/09/23 01:53:19;;;;;;;;;;;21.30;47.90;;;;;;1560483;74;1626;-67
2023/09/23 01:55:20;;;;;;;;;;;21.30;47.80;;;;;;1564435;74;1637;-65
2023/09/23 01:57:22;;;;;;;;;;;21.30;47.80;;;;;;1560374;74;734;-65
2023/09/23 01:59:24;;;;;;;;;;;21.30;47.80;;;;;;1563172;74;1129;-67
2023/09/23 02:01:26;;;;;;;;;;;21.30;47.90;;;;;;1565260;74;1934;-67
2023/09/23 02:03:28;;;;;;;;;;;21.30;47.90;;;;;;1567008;74;758;-66
2023/09/23 02:05:30;;;;;;;;;;;21.30;47.90;;;;;;1567185;74;642;-67
2023/09/23 02:07:31;;;;;;;;;;;21.40;47.90;;;;;;1566540;74;725;-67
2023/09/23 02:09:37;;;;;;;;;;;21.50;47.90;;;;;;1565504;74;1180;-68
2023/09/23 02:11:39;;;;;;;;;;;21.30;47.90;;;;;;1560003;74;742;-67
2023/09/23 02:13:41;;;;;;;;;;;21.30;47.80;;;;;;1563073;74;640;-67
2023/09/23 02:15:45;;;;;;;;;;;21.30;47.90;;;;;;1566423;74;737;-65
2023/09/23 02:17:47;;;;;;;;;;;21.30;47.70;;;;;;1564359;74;1537;-66
2023/09/23 02:19:51;;;;;;;;;;;21.30;47.90;;;;;;1567625;74;703;-68
2023/09/23 02:21:52;;;;;;;;;;;21.30;47.70;;;;;;1559144;74;1935;-68
2023/09/23 02:23:59;;;;;;;;;;;21.30;47.60;;;;;;1564055;74;741;-68
2023/09/23 02:26:00;;;;;;;;;;;21.30;47.60;;;;;;1565342;74;1276;-67
2023/09/23 02:28:01;;;;;;;;;;;21.30;47.60;;;;;;1565313;74;1685;-67
2023/09/23 02:30:09;;;;;;;;;;;21.30;47.80;;;;;;1566757;74;769;-69
2023/09/23 02:32:07;;;;;;;;;;;21.20;47.50;;;;;;1561279;74;1665;-67
2023/09/23 02:34:10;;;;;;;;;;;21.30;47.60;;;;;;1566087;74;711;-67
2023/09/23 02:36:14;;;;;;;;;;;21.40;47.50;;;;;;1559097;74;750;-67
2023/09/23 02:38:15;;;;;;;;;;;21.30;47.50;;;;;;1564635;74;1684;-67
2023/09/23 02:40:17;;;;;;;;;;;21.20;47.60;;;;;;1566629;74;724;-67
2023/09/23 02:42:19;;;;;;;;;;;21.20;47.40;;;;;;1559988;74;1910;-68
2023/09/23 02:44:24;;;;;;;;;;;21.30;47.60;;;;;;1557967;76;643;-66
2023/09/23 02:46:24;;;;;;;;;;;21.50;47.70;;;;;;1562214;74;1651;-68
2023/09/23 02:48:27;;;;;;;;;;;21.20;47.50;;;;;;1566731;74;1471;-67
2023/09/23 02:50:29;;;;;;;;;;;21.20;47.50;;;;;;1566593;74;710;-66
2023/09/23 02:52:30;;;;;;;;;;;21.30;47.50;;;;;;1565383;74;758;-67
2023/09/23 02:54:32;;;;;;;;;;;21.20;47.40;;;;;;1566041;74;723;-66
2023/09/23 02:56:37;;;;;;;;;;;21.20;47.40;;;;;;1567382;74;744;-67
2023/09/23 02:58:40;;;;;;;;;;;21.20;47.50;;;;;;1566820;74;1134;-67
2023/09/23 03:00:44;;;;;;;;;;;21.20;47.50;;;;;;1570371;74;909;-67
2023/09/23 03:02:45;;;;;;;;;;;21.20;47.40;;;;;;1561131;74;1940;-64
2023/09/23 03:04:47;;;;;;;;;;;21.20;47.40;;;;;;1558888;74;735;-67
2023/09/23 03:06:50;;;;;;;;;;;21.20;47.40;;;;;;1564767;74;912;-64
2023/09/23 03:08:57;;;;;;;;;;;21.50;47.70;;;;;;1561559;74;1179;-66
2023/09/23 03:11:02;;;;;;;;;;;21.20;47.40;;;;;;1563958;74;1562;-66
2023/09/23 03:13:11;;;;;;;;;;;21.10;47.50;;;;;;1564230;74;1625;-67
2023/09/23 03:15:14;;;;;;;;;;;21.20;47.40;;;;;;1565501;74;1621;-66
2023/09/23 03:17:21;;;;;;;;;;;21.20;47.30;;;;;;1562597;74;1612;-67
2023/09/23 03:19:24;;;;;;;;;;;21.50;47.60;;;;;;1565061;74;1662;-68
2023/09/23 03:21:19;;;;;;;;;;;21.10;47.30;;;;;;1557262;74;1942;-67
2023/09/23 03:23:21;;;;;;;;;;;21.10;47.30;;;;;;1566013;74;663;-67
2023/09/23 03:25:23;;;;;;;;;;;21.10;47.30;;;;;;1562616;74;712;-67
2023/09/23 03:27:28;;;;;;;;;;;21.10;47.20;;;;;;1566789;74;603;-67
2023/09/23 03:29:30;;;;;;;;;;;21.20;47.20;;;;;;1569943;74;1668;-67
2023/09/23 03:31:32;;;;;;;;;;;21.00;47.10;;;;;;1561910;74;731;-67
2023/09/23 03:33:34;;;;;;;;;;;21.00;47.20;;;;;;1565730;74;719;-67
2023/09/23 03:35:36;;;;;;;;;;;21.00;47.20;;;;;;1566616;74;711;-66
2023/09/23 03:37:38;;;;;;;;;;;21.50;47.50;;;;;;1560160;74;554;-67
2023/09/23 03:39:41;;;;;;;;;;;21.10;47.30;;;;;;1568662;74;1196;-67
2023/09/23 03:41:47;;;;;;;;;;;21.00;47.30;;;;;;1528040;76;1916;-66
2023/09/23 03:43:46;;;;;;;;;;;21.00;47.30;;;;;;1506358;77;1474;-67
2023/09/23 03:45:50;;;;;;;;;;;21.00;47.30;;;;;;1515341;77;720;-68
2023/09/23 03:47:52;;;;;;;;;;;21.10;47.30;;;;;;1527594;76;1598;-67
2023/09/23 03:49:54;;;;;;;;;;;21.00;47.30;;;;;;1499592;77;717;-67
2023/09/23 03:51:56;;;;;;;;;;;21.00;47.20;;;;;;1525902;76;628;-67
2023/09/23 03:53:58;;;;;;;;;;;21.10;47.40;;;;;;1530058;76;710;-67
2023/09/23 03:56:00;;;;;;;;;;;21.00;47.30;;;;;;1527723;76;752;-67
2023/09/23 03:58:03;;;;;;;;;;;21.00;47.30;;;;;;1501251;77;1303;-67
2023/09/23 04:00:14;;;;;;;;;;;21.00;47.40;;;;;;1507854;77;708;-67
2023/09/23 04:02:09;;;;;;;;;;;21.00;47.40;;;;;;1503108;77;1937;-68
2023/09/23 04:04:11;;;;;;;;;;;21.40;47.50;;;;;;1514582;77;730;-66
2023/09/23 04:06:12;;;;;;;;;;;21.60;47.60;;;;;;1494859;77;735;-67
2023/09/23 04:08:15;;;;;;;;;;;21.00;47.30;;;;;;1528606;76;1134;-68
2023/09/23 04:10:23;;;;;;;;;;;21.00;47.30;;;;;;1527618;76;706;-67
2023/09/23 04:12:20;;;;;;;;;;;21.10;47.40;;;;;;1522917;76;1466;-67
2023/09/23 04:14:24;;;;;;;;;;;21.00;47.40;;;;;;1512046;77;749;-67
2023/09/23 04:16:25;;;;;;;;;;;21.00;47.40;;;;;;1526869;76;699;-66
2023/09/23 04:18:29;;;;;;;;;;;21.00;47.30;;;;;;1530059;76;1150;-67
2023/09/23 04:20:32;;;;;;;;;;;21.50;47.70;;;;;;1505949;77;925;-67
2023/09/23 04:22:33;;;;;;;;;;;21.00;47.30;;;;;;1528129;76;1909;-67
2023/09/23 04:24:35;;;;;;;;;;;21.00;47.40;;;;;;1499225;77;731;-67
2023/09/23 04:26:38;;;;;;;;;;;21.00;47.30;;;;;;1529576;76;717;-67
2023/09/23 04:28:41;;;;;;;;;;;21.10;47.50;;;;;;1500862;77;1078;-67
2023/09/23 04:30:43;;;;;;;;;;;21.00;47.40;;;;;;1499810;77;748;-67
2023/09/23 04:32:45;;;;;;;;;;;21.00;47.40;;;;;;1539511;76;712;-66
2023/09/23 04:34:47;;;;;;;;;;;21.10;47.50;;;;;;1528871;76;760;-67
2023/09/23 04:36:49;;;;;;;;;;;21.10;47.50;;;;;;1503126;77;781;-67
2023/09/23 04:38:51;;;;;;;;;;;21.00;47.40;;;;;;1497085;77;1165;-67
2023/09/23 04:40:53;;;;;;;;;;;21.00;47.50;;;;;;1528109;76;1435;-67
2023/09/23 04:42:55;;;;;;;;;;;21.00;47.60;;;;;;1527478;76;1924;-67
2023/09/23 04:44:58;;;;;;;;;;;21.10;47.60;;;;;;1529396;76;744;-66
2023/09/23 04:47:00;;;;;;;;;;;21.10;47.60;;;;;;1525412;77;772;-67
2023/09/23 04:49:02;;;;;;;;;;;21.10;47.60;;;;;;1526913;77;1092;-67
2023/09/23 04:51:06;;;;;;;;;;;21.10;47.60;;;;;;1528047;77;727;-67
2023/09/23 04:53:08;;;;;;;;;;;21.10;47.60;;;;;;1525475;77;709;-66
2023/09/23 04:55:10;;;;;;;;;;;21.10;47.50;;;;;;1525830;76;790;-67
2023/09/23 04:57:13;;;;;;;;;;;21.10;47.40;;;;;;1529082;77;751;-67
2023/09/23 04:59:15;;;;;;;;;;;21.00;47.30;;;;;;1519191;77;1147;-66
2023/09/23 05:01:17;;;;;;;;;;;21.00;47.20;;;;;;1520767;77;762;-67
2023/09/23 05:03:23;;;;;;;;;;;21.00;47.30;;;;;;1527181;76;1922;-67
2023/09/23 05:05:24;;;;;;;;;;;21.10;47.40;;;;;;1518975;77;1621;-67
2023/09/23 05:07:26;;;;;;;;;;;21.00;47.20;;;;;;1522722;77;640;-66
2023/09/23 05:09:28;;;;;;;;;;;21.00;47.10;;;;;;1522406;76;1147;-67
2023/09/23 05:11:30;;;;;;;;;;;21.00;47.20;;;;;;1527764;76;862;-68
2023/09/23 05:13:32;;;;;;;;;;;21.00;47.30;;;;;;1523677;76;662;-67
2023/09/23 05:15:34;;;;;;;;;;;21.00;47.30;;;;;;1525212;77;601;-67
2023/09/23 05:17:37;;;;;;;;;;;21.00;47.20;;;;;;1520303;77;745;-66
2023/09/23 05:19:39;;;;;;;;;;;20.90;47.30;;;;;;1527832;77;1094;-68
2023/09/23 05:21:42;;;;;;;;;;;20.90;47.30;;;;;;1527239;77;764;-67
2023/09/23 05:23:46;;;;;;;;;;;21.00;47.10;;;;;;1528846;77;1917;-67
2023/09/23 05:25:47;;;;;;;;;;;21.00;47.10;;;;;;1522138;76;1677;-66
2023/09/23 05:27:49;;;;;;;;;;;20.90;47.20;;;;;;1528241;77;1147;-67
2023/09/23 05:29:51;;;;;;;;;;;20.90;47.30;;;;;;1527092;77;722;-67
2023/09/23 05:31:53;;;;;;;;;;;21.00;47.30;;;;;;1527002;77;754;-68
2023/09/23 05:33:55;;;;;;;;;;;21.00;47.40;;;;;;1528889;77;742;-68
2023/09/23 05:35:57;;;;;;;;;;;21.00;47.30;;;;;;1524339;77;572;-67
2023/09/23 05:37:59;;;;;;;;;;;21.00;47.40;;;;;;1524098;77;1152;-67
2023/09/23 05:40:01;;;;;;;;;;;21.00;47.40;;;;;;1527878;77;736;-67
2023/09/23 05:42:03;;;;;;;;;;;21.00;47.40;;;;;;1527511;77;856;-68
2023/09/23 05:44:05;;;;;;;;;;;21.10;47.40;;;;;;1528022;76;1920;-67
2023/09/23 05:46:09;;;;;;;;;;;21.00;47.30;;;;;;1527176;77;741;-67
2023/09/23 05:48:11;;;;;;;;;;;21.00;47.30;;;;;;1526103;76;1155;-66
2023/09/23 05:50:16;;;;;;;;;;;21.00;47.30;;;;;;1527472;77;713;-67
2023/09/23 05:52:16;;;;;;;;;;;21.00;47.30;;;;;;1527670;77;1673;-67
2023/09/23 05:54:20;;;;;;;;;;;21.00;47.40;;;;;;1525248;76;718;-67
2023/09/23 05:56:22;;;;;;;;;;;21.00;47.30;;;;;;1529492;77;752;-67
2023/09/23 05:58:24;;;;;;;;;;;21.00;47.30;;;;;;1521709;77;1138;-66
2023/09/23 06:00:25;;;;;;;;;;;21.00;47.20;;;;;;1524470;76;743;-68
2023/09/23 06:02:27;;;;;;;;;;;21.10;47.30;;;;;;1527106;76;1948;-67
2023/09/23 06:04:30;;;;;;;;;;;21.00;47.20;;;;;;1532248;76;782;-67
2023/09/23 06:06:32;;;;;;;;;;;20.90;47.30;;;;;;1525440;77;731;-68
2023/09/23 06:08:34;;;;;;;;;;;21.00;47.30;;;;;;1529087;76;1064;-67
2023/09/23 06:10:36;;;;;;;;;;;21.00;47.30;;;;;;1511897;76;743;-67
2023/09/23 06:12:38;;;;;;;;;;;21.00;47.30;;;;;;1526796;76;765;-67
2023/09/23 06:14:40;;;;;;;;;;;21.10;47.30;;;;;;1529561;77;742;-66
2023/09/23 06:16:42;;;;;;;;;;;21.00;47.30;;;;;;1493704;77;724;-68
2023/09/23 06:18:44;;;;;;;;;;;20.90;47.30;;;;;;1519802;77;1178;-68
2023/09/23 06:20:46;;;;;;;;;;;21.00;47.30;;;;;;1526297;76;735;-67
2023/09/23 06:22:48;;;;;;;;;;;20.90;47.30;;;;;;1528078;77;1920;-67
2023/09/23 06:24:50;;;;;;;;;;;20.90;47.30;;;;;;1526697;77;734;-67
2023/09/23 06:26:52;;;;;;;;;;;21.00;47.30;;;;;;1528186;77;766;-66
2023/09/23 06:28:54;;;;;;;;;;;20.90;47.30;;;;;;1518242;76;1212;-67
2023/09/23 06:30:56;;;;;;;;;;;20.90;47.20;;;;;;1522143;76;717;-67
2023/09/23 06:32:58;;;;;;;;;;;20.90;47.20;;;;;;1517120;76;1616;-68
2023/09/23 06:35:00;;;;;;;;;;;20.90;47.20;;;;;;1514690;76;721;-67
2023/09/23 06:37:02;;;;;;;;;;;20.90;47.30;;;;;;1519042;76;724;-67
2023/09/23 06:39:04;;;;;;;;;;;20.90;47.30;;;;;;1517154;76;1122;-67
2023/09/23 06:41:06;;;;;;;;;;;20.90;47.30;;;;;;1517464;76;707;-67
2023/09/23 06:43:08;;;;;;;;;;;21.00;47.40;;;;;;1515154;76;1918;-66
2023/09/23 06:45:10;;;;;;;;;;;20.90;47.40;;;;;;1519994;76;747;-67
2023/09/23 06:47:12;;;;;;;;;;;20.90;47.50;;;;;;1518837;76;733;-66
2023/09/23 06:49:14;;;;;;;;;;;20.90;47.50;;;;;;1518119;77;1140;-67
2023/09/23 06:51:15;;;;;;;;;;;21.50;47.80;;;;;;1513079;76;842;-67
2023/09/23 06:53:17;;;;;;;;;;;20.90;47.50;;;;;;1514444;76;747;-67
2023/09/23 06:55:19;;;;;;;;;;;20.90;47.60;;;;;;1513099;76;732;-67
2023/09/23 06:57:21;;;;;;;;;;;21.00;47.60;;;;;;1518756;76;730;-67
2023/09/23 06:59:23;;;;;;;;;;;21.00;47.70;;;;;;1515092;76;1049;-65
2023/09/23 07:01:25;;;;;;;;;;;21.00;47.60;;;;;;1511032;76;723;-67
2023/09/23 07:03:27;;;;;;;;;;;21.00;47.60;;;;;;1518762;76;1948;-66
2023/09/23 07:05:29;;;;;;;;;;;21.00;47.60;;;;;;1512891;76;693;-67
2023/09/23 07:07:30;;;;;;;;;;;21.40;47.80;;;;;;1514619;76;721;-66
2023/09/23 07:09:33;;;;;;;;;;;21.00;47.60;;;;;;1513310;76;1139;-67
2023/09/23 07:11:35;;;;;;;;;;;21.10;47.80;;;;;;1519281;76;723;-67
2023/09/23 07:13:36;;;;;;;;;;;21.00;47.70;;;;;;1516662;76;753;-66
2023/09/23 07:15:39;;;;;;;;;;;21.00;47.80;;;;;;1515366;76;724;-66
2023/09/23 07:17:40;;;;;;;;;;;21.00;47.80;;;;;;1517053;76;714;-66
2023/09/23 07:19:43;;;;;;;;;;;21.00;47.80;;;;;;1515390;76;1206;-66
2023/09/23 07:21:45;;;;;;;;;;;21.00;47.80;;;;;;1522480;76;747;-67
2023/09/23 07:23:46;;;;;;;;;;;21.10;47.80;;;;;;1516494;76;1943;-67
2023/09/23 07:25:48;;;;;;;;;;;21.00;47.80;;;;;;1498322;77;694;-67
2023/09/23 07:27:50;;;;;;;;;;;21.10;47.90;;;;;;1567062;74;1166;-67
2023/09/23 07:29:52;;;;;;;;;;;21.00;47.90;;;;;;1559444;74;1495;-67
2023/09/23 07:31:54;;;;;;;;;;;21.10;47.80;;;;;;1565451;74;733;-68
2023/09/23 07:33:56;;;;;;;;;;;21.10;47.80;;;;;;1575396;74;669;-67
2023/09/23 07:35:58;;;;;;;;;;;21.10;47.80;;;;;;1566181;74;727;-67
2023/09/23 07:38:00;;;;;;;;;;;21.10;47.90;;;;;;1565848;74;1150;-67
2023/09/23 07:40:03;;;;;;;;;;;21.10;47.80;;;;;;1562738;74;1062;-68
2023/09/23 07:42:05;;;;;;;;;;;21.30;48.00;;;;;;1569136;74;694;-65
2023/09/23 07:44:07;;;;;;;;;;;21.10;47.80;;;;;;1566143;74;1927;-66
2023/09/23 07:46:09;;;;;;;;;;;21.10;47.80;;;;;;1562018;74;674;-68
2023/09/23 07:48:11;;;;;;;;;;;21.10;47.90;;;;;;1563978;74;1158;-67
2023/09/23 07:50:13;;;;;;;;;;;21.10;47.90;;;;;;1565190;74;730;-67
2023/09/23 07:52:14;;;;;;;;;;;21.10;48.00;;;;;;1565621;74;714;-67
2023/09/23 07:54:16;;;;;;;;;;;21.10;47.80;;;;;;1563454;74;724;-68
2023/09/23 07:56:18;;;;;;;;;;;21.10;47.70;;;;;;1564857;74;686;-67
2023/09/23 07:58:20;;;;;;;;;;;21.10;47.60;;;;;;1567886;74;1160;-68
2023/09/23 08:00:22;;;;;;;;;;;21.10;47.60;;;;;;1564132;74;748;-68
2023/09/23 08:02:24;;;;;;;;;;;21.10;47.60;;;;;;1565664;74;788;-66
2023/09/23 08:04:26;;;;;;;;;;;21.10;47.60;;;;;;1563522;74;1937;-67
2023/09/23 08:06:28;;;;;;;;;;;21.10;47.60;;;;;;1565079;74;714;-67
2023/09/23 08:08:30;;;;;;;;;;;21.10;47.60;;;;;;1559797;75;1148;-66
2023/09/23 08:10:32;;;;;;;;;;;21.20;47.50;;;;;;1560617;74;704;-67
2023/09/23 08:12:34;;;;;;;;;;;21.10;47.40;;;;;;1566527;74;695;-66
2023/09/23 08:14:36;;;;;;;;;;;21.10;47.50;;;;;;1564607;74;705;-66
2023/09/23 08:16:38;;;;;;;;;;;21.10;47.30;;;;;;1551893;74;726;-66
2023/09/23 08:18:40;;;;;;;;;;;21.20;47.10;;;;;;1560687;74;1195;-67
2023/09/23 08:20:43;;;;;;;;;;;21.10;46.90;;;;;;1561705;74;786;-67
2023/09/23 08:22:48;;;;;;;;;;;21.10;46.90;;;;;;1561049;74;803;-67
2023/09/23 08:24:50;;;;;;;;;;;21.10;46.80;;;;;;1562278;74;1939;-67
2023/09/23 08:26:53;;;;;;;;;;;21.00;46.60;;;;;;1568606;74;727;-67
2023/09/23 08:28:56;;;;;;;;;;;21.10;46.60;;;;;;1567010;74;1141;-67
2023/09/23 08:30:58;;;;;;;;;;;21.10;46.50;;;;;;1564982;74;613;-68
2023/09/23 08:33:00;;;;;;;;;;;21.00;46.50;;;;;;1563216;74;720;-68
2023/09/23 08:35:02;;;;;;;;;;;21.10;46.70;;;;;;1566967;74;736;-68
2023/09/23 08:37:04;;;;;;;;;;;21.10;46.90;;;;;;1567459;74;712;-68
2023/09/23 08:39:09;;;;;;;;;;;21.10;46.80;;;;;;1566058;74;1124;-66
2023/09/23 08:41:09;;;;;;;;;;;21.00;46.50;;;;;;1564389;74;1688;-67
2023/09/23 08:43:11;;;;;;;;;;;21.10;46.50;;;;;;1568544;74;701;-67
2023/09/23 08:45:14;;;;;;;;;;;21.10;46.20;;;;;;1563907;74;1901;-67
2023/09/23 08:47:17;;;;;;;;;;;21.10;46.20;;;;;;1533073;76;733;-66
2023/09/23 08:49:24;;;;;;;;;;;21.10;46.30;;;;;;1505636;77;1157;-67
2023/09/23 08:51:27;;;;;;;;;;;21.10;46.30;;;;;;1495996;77;750;-67
2023/09/23 08:53:31;;;;;;;;;;;21.10;46.00;;;;;;1520264;76;657;-64
2023/09/23 08:55:33;;;;;;;;;;;21.10;45.70;;;;;;1514409;76;1526;-67
2023/09/23 08:57:35;;;;;;;;;;;21.50;45.80;;;;;;1514859;77;715;-67
2023/09/23 08:59:36;;;;;;;;;;;21.10;45.60;;;;;;1506786;76;1117;-67
2023/09/23 09:01:42;;;;;;;;;;;21.10;45.50;;;;;;1515270;76;754;-66
2023/09/23 09:03:44;;;;;;;;;;;21.00;45.40;;;;;;1521242;76;1916;-67
2023/09/23 09:05:47;;;;;;;;;;;21.10;45.50;;;;;;1515239;76;749;-67
2023/09/23 09:07:48;;;;;;;;;;;21.10;45.20;;;;;;1514133;76;1153;-67
2023/09/23 09:09:50;;;;;;;;;;;21.00;44.90;;;;;;1511539;76;672;-67
2023/09/23 09:11:58;;;;;;;;;;;21.00;45.00;;;;;;1515934;76;735;-68
2023/09/23 09:13:57;;;;;;;;;;;21.10;45.10;;;;;;1512530;76;1601;-67
2023/09/23 09:16:01;;;;;;;;;;;21.30;45.30;;;;;;1512921;76;732;-67
2023/09/23 09:18:03;;;;;;;;;;;21.10;45.10;;;;;;1511874;76;1509;-67
2023/09/23 09:20:08;;;;;;;;;;;21.00;44.70;;;;;;1518368;76;733;-67
2023/09/23 09:22:09;;;;;;;;;;;21.10;44.90;;;;;;1513759;76;1661;-66
2023/09/23 09:24:10;;;;;;;;;;;21.10;44.90;;;;;;1516286;76;1941;-66
2023/09/23 09:26:12;;;;;;;;;;;21.10;44.90;;;;;;1518049;77;715;-67
2023/09/23 09:28:16;;;;;;;;;;;21.30;44.80;;;;;;1512787;76;1147;-66
2023/09/23 09:30:19;;;;;;;;;;;21.00;44.40;;;;;;1515128;76;1106;-67
2023/09/23 09:32:21;;;;;;;;;;;21.10;44.60;;;;;;1512835;76;721;-65
2023/09/23 09:34:24;;;;;;;;;;;21.00;44.80;;;;;;1523895;76;746;-65
2023/09/23 09:36:26;;;;;;;;;;;21.20;45.00;;;;;;1519014;76;749;-67
2023/09/23 09:38:28;;;;;;;;;;;21.10;45.10;;;;;;1517006;76;1135;-66
2023/09/23 09:40:30;;;;;;;;;;;21.10;45.00;;;;;;1515557;76;711;-66
2023/09/23 09:42:33;;;;;;;;;;;21.10;45.00;;;;;;1523460;76;822;-67
2023/09/23 09:44:35;;;;;;;;;;;21.10;44.90;;;;;;1515482;76;1917;-67
2023/09/23 09:46:37;;;;;;;;;;;21.10;44.70;;;;;;1518997;76;724;-66
2023/09/23 09:48:39;;;;;;;;;;;21.10;44.40;;;;;;1517859;76;1127;-66
2023/09/23 09:50:41;;;;;;;;;;;21.10;44.40;;;;;;1518230;77;713;-67
2023/09/23 09:52:47;;;;;;;;;;;21.10;44.50;;;;;;1518948;76;724;-67
2023/09/23 09:54:46;;;;;;;;;;;21.10;44.50;;;;;;1518084;76;1581;-68
2023/09/23 09:56:49;;;;;;;;;;;21.10;44.20;;;;;;1514741;76;723;-68
2023/09/23 09:58:53;;;;;;;;;;;21.00;43.80;;;;;;1515438;76;1159;-66
2023/09/23 10:00:55;;;;;;;;;;;21.50;44.20;;;;;;1515442;76;1687;-67
2023/09/23 10:03:00;;;;;;;;;;;21.10;44.10;;;;;;1483255;79;746;-67
2023/09/23 10:05:03;;;;;;;;;;;21.00;44.10;;;;;;1507454;77;1925;-67
2023/09/23 10:07:08;;;;;;;;;;;21.00;44.30;;;;;;1512105;77;701;-66
2023/09/23 10:09:17;;;;;;;;;;;21.10;44.40;;;;;;1509976;77;1147;-67
2023/09/23 10:11:21;;;;;;;;;;;21.50;44.50;;;;;;1512334;77;1052;-67
2023/09/23 10:13:24;;;;;;;;;;;21.10;44.20;;;;;;1506008;77;1100;-66
2023/09/23 10:15:27;;;;;;;;;;;21.10;44.00;;;;;;1507503;77;722;-68
2023/09/23 10:17:36;;;;;;;;;;;21.10;43.90;;;;;;1509161;77;1526;-67
2023/09/23 10:19:33;;;;;;;;;;;21.10;43.60;;;;;;1511494;77;1708;-67
2023/09/23 10:21:35;;;;;;;;;;;21.10;43.50;;;;;;1508460;77;753;-67
2023/09/23 10:23:42;;;;;;;;;;;21.00;43.50;;;;;;1509584;77;737;-66
2023/09/23 10:25:47;;;;;;;;;;;21.20;43.50;;;;;;1510675;77;1935;-67
2023/09/23 10:27:59;;;;;;;;;;;21.10;43.50;;;;;;1503018;77;1484;-66
2023/09/23 10:30:00;;;;;;;;;;;21.00;43.20;;;;;;1506241;77;1410;-67
2023/09/23 10:32:04;;;;;;;;;;;21.00;43.20;;;;;;1506797;77;778;-67
2023/09/23 10:34:06;;;;;;;;;;;21.00;43.10;;;;;;1513643;77;1576;-67
2023/09/23 10:36:10;;;;;;;;;;;21.10;43.10;;;;;;1512465;77;713;-65
2023/09/23 10:38:13;;;;;;;;;;;21.10;43.40;;;;;;1506348;77;1620;-67
2023/09/23 10:40:17;;;;;;;;;;;21.00;42.90;;;;;;1508652;77;1587;-68
2023/09/23 10:42:19;;;;;;;;;;;21.00;43.00;;;;;;1503578;77;724;-66
2023/09/23 10:44:24;;;;;;;;;;;21.10;43.00;;;;;;1511532;77;1909;-67
2023/09/23 10:46:26;;;;;;;;;;;21.10;42.80;;;;;;1501839;77;839;-67
2023/09/23 10:48:28;;;;;;;;;;;21.10;43.10;;;;;;1512442;77;1171;-67
2023/09/23 10:50:30;;;;;;;;;;;21.10;43.10;;;;;;1511220;77;723;-67
2023/09/23 10:52:32;;;;;;;;;;;21.20;43.00;;;;;;1511919;77;740;-66
2023/09/23 10:54:34;;;;;;;;;;;21.10;42.80;;;;;;1509618;77;756;-66
2023/09/23 10:56:37;;;;;;;;;;;21.10;42.70;;;;;;1469634;78;1254;-67
2023/09/23 10:58:39;;;;;;;;;;;21.10;43.00;;;;;;1511768;77;1180;-66
2023/09/23 11:00:41;;;;;;;;;;;21.10;42.80;;;;;;1505844;77;734;-66
2023/09/23 11:02:44;;;;;;;;;;;21.10;43.00;;;;;;1510755;77;699;-66
2023/09/23 11:04:48;;;;;;;;;;;21.10;43.10;;;;;;1515052;77;1912;-66
2023/09/23 11:06:50;;;;;;;;;;;21.10;43.00;;;;;;1475359;79;689;-65
2023/09/23 11:08:52;;;;;;;;;;;21.40;43.00;;;;;;1510756;77;1150;-67
2023/09/23 11:10:55;;;;;;;;;;;21.10;42.80;;;;;;1508513;77;616;-66
2023/09/23 11:12:58;;;;;;;;;;;21.10;42.90;;;;;;1509356;77;715;-67
2023/09/23 11:15:00;;;;;;;;;;;21.30;42.90;;;;;;1509818;77;1510;-66
2023/09/23 11:17:03;;;;;;;;;;;21.10;42.60;;;;;;1474164;78;1155;-67
2023/09/23 11:19:07;;;;;;;;;;;21.10;42.40;;;;;;1510275;77;1116;-67
2023/09/23 11:21:10;;;;;;;;;;;21.10;42.50;;;;;;1507837;77;789;-67
2023/09/23 11:23:12;;;;;;;;;;;21.30;42.70;;;;;;1519714;76;696;-67
2023/09/23 11:25:14;;;;;;;;;;;21.10;42.30;;;;;;1558134;74;1916;-66
2023/09/23 11:27:17;;;;;;;;;;;21.10;42.20;;;;;;1559285;74;628;-64
2023/09/23 11:29:18;;;;;;;;;;;21.10;42.10;;;;;;1563279;74;1161;-68
2023/09/23 11:31:20;;;;;;;;;;;21.20;41.90;;;;;;1563833;74;752;-66
2023/09/23 11:33:22;;;;;;;;;;;21.10;42.00;;;;;;1567253;74;772;-67
2023/09/23 11:35:24;;;;;;;;;;;21.10;41.80;;;;;;1563492;74;732;-67
2023/09/23 11:37:26;;;;;;;;;;;21.10;41.50;;;;;;1565790;74;724;-67
2023/09/23 11:39:29;;;;;;;;;;;21.10;41.70;;;;;;1564286;74;1132;-66
2023/09/23 11:41:31;;;;;;;;;;;21.10;42.10;;;;;;1566983;74;1780;-66
2023/09/23 11:43:33;;;;;;;;;;;21.10;42.00;;;;;;1563665;74;788;-67
2023/09/23 11:45:35;;;;;;;;;;;21.10;42.20;;;;;;1560877;74;1930;-67
2023/09/23 11:47:38;;;;;;;;;;;21.10;42.40;;;;;;1565381;74;740;-67
2023/09/23 11:49:39;;;;;;;;;;;21.10;42.10;;;;;;1560971;74;1120;-67
2023/09/23 11:51:41;;;;;;;;;;;21.30;42.50;;;;;;1564675;74;731;-66
2023/09/23 11:53:43;;;;;;;;;;;21.10;42.40;;;;;;1564939;74;752;-67
2023/09/23 11:55:45;;;;;;;;;;;21.10;42.30;;;;;;1566613;74;758;-67
2023/09/23 11:57:47;;;;;;;;;;;21.10;41.90;;;;;;1560952;74;1148;-66
2023/09/23 11:59:49;;;;;;;;;;;21.10;41.70;;;;;;1566495;74;814;-68
2023/09/23 12:01:51;;;;;;;;;;;21.10;42.00;;;;;;1564286;74;787;-68
2023/09/23 12:03:58;;;;;;;;;;;21.10;41.80;;;;;;1560616;74;748;-67
2023/09/23 12:05:56;;;;;;;;;;;21.10;41.80;;;;;;1564207;74;1923;-66
2023/09/23 12:07:58;;;;;;;;;;;21.30;41.60;;;;;;1565428;74;1140;-67
2023/09/23 12:10:03;;;;;;;;;;;21.10;41.20;;;;;;1565999;74;1490;-66